首页
METAR-TAF:

METAR-TAF

机场 :

萨尔瓦多奥斯卡·阿努尔福·罗梅罗-伊-加尔达梅斯主教国际机场

萨尔瓦多, 萨尔瓦多

纬度: 13-26N, 经度: 089-03W, 海拔: 25米

当前天气观测

该预报发布于1小时和4分钟前的02:50 UTC
风速1节,风向多变
温度 26°C
湿度 74%
气压 1011 hPa
能见度10公里或以上
散云层高于7300英尺

METAR: MSLP 260250Z VRB01KT 9999 SCT073 26/21 Q1010 A2985 NOSIG

时间: 21:54 (03:54 UTC)

预报

该预报发布于6小时和29分钟前的21:25 UTC
预报有效从26日的 00点(UTC)到 26日的 24点(UTC)
风速3节,风向多变
能见度10公里或以上
散云层高于7000英尺
从 26日的 0400点(UTC)
风速4节,风向东北
从 26日的 0800点(UTC)
能见度10公里或以上
1500米以下无云,无积雨云
从 26日的 1800点(UTC)
风速8节,风向南转西南
能见度10公里或以上
散云层高于6000英尺

TAF: MSLP 252125Z 2600/2624 VRB03KT 9999 SCT070 TX35/2618Z TN22/2610Z FM260400 04004KT FM260800 CAVOK FM261800 20008KT 9999 SCT060

超过4000个机场的气象观测和天气预报(METAR&TAF报告)。

可查询的气象台以黄色和红色小点在地图上表示。

将鼠标移到小点上方,可查看气象台名称。

然后点击查看天气观测和预报。

如需切换地图:点击带黑十字的绿色按钮放大地图;点击带横线的绿色按钮缩小地图;或者点击绿色箭头查看邻近地区的地图。


METAR-TAF: